Time;durP1;ratioP1;P1;durP2;ratioP2;P2;SDS_P1;SDS_P2;PMS_P1;PMS_P2;Temp;Humidity;BMP_temperature;BMP_pressure;BME280_temperature;BME280_humidity;BME280_pressure;Samples;Min_cycle;Max_cycle;Signal;HPM_P1;HPM_P2
2024/03/04 00:02:09;;;;;;;1.23;0.87;;;;;;;10.45;95.14;98997.66;5071500;28;20457;-48
2024/03/04 00:04:38;;;;;;;0.30;0.20;;;;;;;10.43;95.24;98999.53;5071909;28;20532;-48
2024/03/04 00:07:05;;;;;;;0.30;0.20;;;;;;;10.37;95.12;99006.00;5071432;28;20442;-48
2024/03/04 00:09:31;;;;;;;0.30;0.20;;;;;;;10.19;96.31;99012.16;5071528;28;20492;-48
2024/03/04 00:11:58;;;;;;;0.30;0.20;;;;;;;10.24;96.74;99007.50;5071228;28;20453;-48
2024/03/04 00:14:24;;;;;;;0.30;0.20;;;;;;;10.33;96.61;99015.06;5071503;28;20450;-48
2024/03/04 00:16:51;;;;;;;0.30;0.20;;;;;;;10.39;96.36;99020.06;5074592;28;20486;-47
2024/03/04 00:19:18;;;;;;;0.30;0.20;;;;;;;10.28;97.16;99022.34;5074826;28;20469;-47
2024/03/04 00:21:45;;;;;;;0.30;0.20;;;;;;;10.34;97.41;99022.94;5072291;28;20499;-48
2024/03/04 00:24:12;;;;;;;0.30;0.20;;;;;;;10.27;97.90;99033.91;5074920;28;20450;-48
2024/03/04 00:26:39;;;;;;;0.30;0.20;;;;;;;10.29;98.07;99037.38;5074645;28;20450;-48
2024/03/04 00:29:06;;;;;;;0.30;0.20;;;;;;;10.20;98.43;99043.94;5074934;28;20470;-48
2024/03/04 00:31:32;;;;;;;0.30;0.20;;;;;;;10.26;98.73;99048.13;5074619;28;20914;-48
2024/03/04 00:33:59;;;;;;;0.30;0.20;;;;;;;10.31;98.45;99049.66;5074646;28;20507;-49
2024/03/04 00:36:29;;;;;;;0.30;0.20;;;;;;;10.23;99.17;99057.09;5045738;28;20482;-48
2024/03/04 00:38:55;;;;;;;0.30;0.20;;;;;;;10.32;98.56;99064.66;5063466;28;20516;-48
2024/03/04 00:41:24;;;;;;;0.30;0.20;;;;;;;10.22;99.28;99063.34;5074238;28;20548;-48
2024/03/04 00:43:50;;;;;;;0.30;0.20;;;;;;;10.35;99.25;99076.91;5066610;28;20545;-48
2024/03/04 00:46:16;;;;;;;0.63;0.63;;;;;;;10.38;98.52;99077.63;5066847;28;20442;-48
2024/03/04 00:48:47;;;;;;;0.30;0.20;;;;;;;10.21;98.97;99074.03;5074908;28;20462;-48
2024/03/04 00:51:14;;;;;;;0.30;0.20;;;;;;;10.47;98.64;99094.09;5074562;28;20442;-48
2024/03/04 00:53:40;;;;;;;0.40;0.20;;;;;;;10.44;98.64;99094.22;5058833;28;20477;-49
2024/03/04 00:56:07;;;;;;;0.30;0.20;;;;;;;10.34;98.03;99099.09;5074071;28;20464;-48
2024/03/04 00:58:33;;;;;;;0.30;0.20;;;;;;;10.36;99.16;99105.22;5073949;28;20874;-49
2024/03/04 01:01:03;;;;;;;0.30;0.20;;;;;;;10.41;99.00;99111.16;5074204;28;20515;-49
2024/03/04 01:03:31;;;;;;;0.40;0.30;;;;;;;10.41;98.49;99120.91;5074089;28;20815;-49
2024/03/04 01:05:59;;;;;;;0.30;0.20;;;;;;;10.31;98.72;99121.38;5073834;28;20958;-48
2024/03/04 01:08:26;;;;;;;0.30;0.20;;;;;;;10.38;99.08;99128.09;5073799;28;21082;-48
2024/03/04 01:10:53;;;;;;;0.40;0.20;;;;;;;10.44;98.50;99131.44;5074223;28;20460;-48
2024/03/04 01:13:20;;;;;;;0.30;0.20;;;;;;;10.54;98.69;99140.66;5074127;28;20450;-49
2024/03/04 01:15:47;;;;;;;0.30;0.20;;;;;;;10.48;97.83;99135.66;5074083;28;20449;-48
2024/03/04 01:18:16;;;;;;;0.40;0.30;;;;;;;10.38;98.24;99135.22;5073624;28;20493;-48
2024/03/04 01:20:46;;;;;;;0.30;0.20;;;;;;;10.52;97.91;99146.06;5073569;28;20473;-48
2024/03/04 01:23:13;;;;;;;0.30;0.20;;;;;;;10.53;97.52;99149.56;5071820;28;20450;-48
2024/03/04 01:25:42;;;;;;;0.30;0.20;;;;;;;10.68;97.00;99154.16;5073406;28;20877;-48
2024/03/04 01:28:09;;;;;;;0.30;0.20;;;;;;;10.23;97.72;99146.53;5073573;28;20469;-50
2024/03/04 01:30:35;;;;;;;0.30;0.20;;;;;;;10.32;98.17;99152.31;5064266;28;20448;-48
2024/03/04 01:33:06;;;;;;;0.40;0.20;;;;;;;10.17;98.32;99146.81;5058263;28;20541;-49
2024/03/04 01:35:34;;;;;;;0.30;0.20;;;;;;;10.07;99.01;99152.50;5057381;28;20472;-48
2024/03/04 01:38:00;;;;;;;0.30;0.20;;;;;;;10.09;99.02;99155.09;5049578;28;20914;-47
2024/03/04 01:40:28;;;;;;;0.30;0.20;;;;;;;9.89;99.57;99163.09;5073525;28;20453;-48
2024/03/04 01:42:55;;;;;;;0.40;0.37;;;;;;;9.85;100.00;99158.84;5065017;28;20834;-48
2024/03/04 01:45:25;;;;;;;0.30;0.20;;;;;;;9.93;99.49;99164.69;5073303;28;20503;-48
2024/03/04 01:47:57;;;;;;;0.30;0.20;;;;;;;9.82;100.00;99174.91;5073032;28;20523;-48
2024/03/04 01:50:31;;;;;;;0.30;0.20;;;;;;;9.71;100.00;99176.22;5065467;28;20549;-47
2024/03/04 01:52:59;;;;;;;0.30;0.20;;;;;;;9.59;100.00;99174.09;5057776;28;20438;-47
2024/03/04 01:55:31;;;;;;;2.47;2.47;;;;;;;9.66;100.00;99180.88;5073238;28;20457;-48
2024/03/04 01:57:58;;;;;;;0.30;0.20;;;;;;;9.60;100.00;99183.78;5072794;28;20504;-48
2024/03/04 02:00:25;;;;;;;0.30;0.20;;;;;;;9.48;100.00;99192.28;5072960;28;20445;-48
2024/03/04 02:02:53;;;;;;;0.30;0.20;;;;;;;9.57;100.00;99185.69;5073140;28;20469;-48
2024/03/04 02:05:20;;;;;;;0.60;0.60;;;;;;;9.53;100.00;99194.72;5073087;28;20527;-47
2024/03/04 02:07:46;;;;;;;0.40;0.40;;;;;;;9.45;99.98;99182.63;5072801;28;20530;-48
2024/03/04 02:10:15;;;;;;;0.30;0.20;;;;;;;9.38;100.00;99188.25;5073088;28;20541;-48
2024/03/04 02:12:44;;;;;;;0.30;0.20;;;;;;;9.45;100.00;99193.22;5073136;28;20442;-48
2024/03/04 02:15:10;;;;;;;2.10;2.10;;;;;;;9.62;100.00;99197.00;5072588;28;20450;-48
2024/03/04 02:17:37;;;;;;;0.30;0.20;;;;;;;9.58;100.00;99200.69;5072871;28;20534;-48
2024/03/04 02:20:13;;;;;;;0.30;0.20;;;;;;;9.92;100.00;99197.47;5072837;28;20446;-48
2024/03/04 02:22:39;;;;;;;0.40;0.20;;;;;;;9.97;100.00;99191.00;5071325;28;20441;-48
2024/03/04 02:25:06;;;;;;;0.93;0.83;;;;;;;10.06;100.00;99203.91;5071214;28;20475;-48
2024/03/04 02:27:35;;;;;;;0.30;0.20;;;;;;;10.17;99.96;99203.44;5072269;28;20446;-47
2024/03/04 02:30:04;;;;;;;0.40;0.20;;;;;;;10.15;99.40;99218.56;5072520;28;20456;-47
2024/03/04 02:32:31;;;;;;;4.10;2.10;;;;;;;10.28;99.25;99217.13;5072457;28;20541;-48
2024/03/04 02:35:00;;;;;;;0.30;0.20;;;;;;;10.05;99.77;99222.53;5066217;28;20480;-47
2024/03/04 02:37:26;;;;;;;0.30;0.20;;;;;;;10.22;99.98;99228.00;5042225;28;20489;-48
2024/03/04 02:39:56;;;;;;;0.30;0.20;;;;;;;10.24;100.00;99219.97;5068859;28;20446;-47
2024/03/04 02:42:22;;;;;;;0.40;0.20;;;;;;;10.36;99.41;99230.91;5066733;28;20960;-47
2024/03/04 02:44:49;;;;;;;0.30;0.20;;;;;;;10.26;98.72;99226.94;5069846;28;20541;-47
2024/03/04 02:47:15;;;;;;;0.30;0.20;;;;;;;10.34;98.97;99227.47;5072452;28;20452;-47
2024/03/04 02:49:42;;;;;;;0.30;0.20;;;;;;;10.49;98.89;99238.34;5071965;28;20465;-47
2024/03/04 02:52:09;;;;;;;0.30;0.20;;;;;;;10.33;99.02;99239.03;5061293;28;20925;-48
2024/03/04 02:54:35;;;;;;;0.40;0.20;;;;;;;10.21;99.38;99239.56;5067152;28;20539;-47
2024/03/04 02:57:02;;;;;;;2.20;2.10;;;;;;;10.16;99.92;99246.84;5072285;28;20542;-48
2024/03/04 02:59:28;;;;;;;0.30;0.20;;;;;;;10.23;100.00;99250.97;5071647;28;20500;-48
2024/03/04 03:01:55;;;;;;;0.30;0.20;;;;;;;10.21;100.00;99249.28;5072130;28;20536;-47
2024/03/04 03:04:24;;;;;;;0.30;0.20;;;;;;;10.32;100.00;99261.22;5071949;28;20454;-47
2024/03/04 03:06:50;;;;;;;0.30;0.20;;;;;;;10.33;100.00;99265.59;5070663;28;20549;-47
2024/03/04 03:09:17;;;;;;;0.30;0.20;;;;;;;10.31;100.00;99263.94;5071756;28;20474;-47
2024/03/04 03:11:43;;;;;;;0.30;0.20;;;;;;;10.29;100.00;99269.31;5070862;28;20453;-47
2024/03/04 03:14:10;;;;;;;0.30;0.20;;;;;;;10.26;100.00;99264.13;5072060;28;20477;-47
2024/03/04 03:16:36;;;;;;;0.30;0.20;;;;;;;10.22;100.00;99259.88;5072394;28;20917;-47
2024/03/04 03:19:03;;;;;;;0.30;0.20;;;;;;;10.33;100.00;99272.69;5071765;28;20550;-48
2024/03/04 03:21:30;;;;;;;0.30;0.20;;;;;;;10.32;100.00;99274.50;5071728;28;20846;-48
2024/03/04 03:23:57;;;;;;;0.30;0.20;;;;;;;10.41;100.00;99275.84;5069887;28;20511;-48
2024/03/04 03:26:25;;;;;;;0.30;0.20;;;;;;;10.33;100.00;99280.66;5070567;28;20465;-47
2024/03/04 03:28:52;;;;;;;0.30;0.20;;;;;;;10.28;100.00;99285.28;5071770;28;20549;-48
2024/03/04 03:31:19;;;;;;;0.30;0.20;;;;;;;10.46;100.00;99284.50;5071734;28;20446;-47
2024/03/04 03:33:46;;;;;;;0.30;0.20;;;;;;;10.56;100.00;99284.97;5071659;28;20449;-47
2024/03/04 03:36:12;;;;;;;0.30;0.20;;;;;;;10.38;100.00;99287.47;5044775;28;20456;-49
2024/03/04 03:38:39;;;;;;;0.30;0.20;;;;;;;10.38;100.00;99286.63;5058607;28;20869;-47
2024/03/04 03:41:06;;;;;;;0.30;0.20;;;;;;;10.45;100.00;99285.44;5071749;28;20461;-47
2024/03/04 03:43:32;;;;;;;0.40;0.20;;;;;;;10.52;100.00;99286.00;5063536;28;20489;-47
2024/03/04 03:45:59;;;;;;;0.30;0.20;;;;;;;10.32;100.00;99279.81;5071642;28;20478;-47
2024/03/04 03:48:25;;;;;;;0.30;0.20;;;;;;;10.43;100.00;99287.31;5071608;28;20553;-47
2024/03/04 03:50:52;;;;;;;0.70;0.70;;;;;;;10.41;100.00;99290.94;5068609;28;20449;-49
2024/03/04 03:53:19;;;;;;;0.87;0.87;;;;;;;10.34;100.00;99291.22;5048408;28;20913;-48
2024/03/04 03:55:46;;;;;;;0.30;0.20;;;;;;;10.30;100.00;99300.25;5069734;28;20894;-48
2024/03/04 03:58:12;;;;;;;0.30;0.20;;;;;;;10.46;100.00;99307.56;5075071;28;20865;-47
2024/03/04 04:00:39;;;;;;;0.30;0.20;;;;;;;10.33;100.00;99304.56;5075093;28;20454;-48
2024/03/04 04:03:05;;;;;;;0.30;0.20;;;;;;;10.51;100.00;99310.84;5075333;28;20878;-47
2024/03/04 04:05:32;;;;;;;0.30;0.20;;;;;;;10.34;100.00;99308.94;5074854;28;20886;-49
2024/03/04 04:07:58;;;;;;;0.30;0.20;;;;;;;10.29;100.00;99309.16;5075373;28;20462;-46
2024/03/04 04:10:25;;;;;;;0.30;0.20;;;;;;;10.35;100.00;99315.97;5075118;28;20456;-47
2024/03/04 04:12:52;;;;;;;0.30;0.20;;;;;;;10.58;100.00;99309.69;5075120;28;20488;-47
2024/03/04 04:15:18;;;;;;;0.30;0.20;;;;;;;10.50;100.00;99323.28;5074698;28;20938;-47
2024/03/04 04:17:45;;;;;;;0.30;0.20;;;;;;;10.55;100.00;99320.41;5074727;28;20457;-48
2024/03/04 04:20:12;;;;;;;0.30;0.20;;;;;;;10.62;100.00;99317.44;5074938;28;20806;-46
2024/03/04 04:22:38;;;;;;;0.30;0.20;;;;;;;10.58;100.00;99313.19;5072028;28;20481;-48
2024/03/04 04:25:05;;;;;;;0.30;0.20;;;;;;;10.59;99.43;99311.41;5073443;28;20525;-47
2024/03/04 04:27:31;;;;;;;0.30;0.20;;;;;;;10.48;99.56;99322.50;5074597;28;20532;-47
2024/03/04 04:29:58;;;;;;;0.30;0.20;;;;;;;10.33;100.00;99326.69;5074701;28;20537;-47
2024/03/04 04:32:26;;;;;;;2.50;1.33;;;;;;;10.34;100.00;99335.50;5074760;28;20462;-47
2024/03/04 04:34:52;;;;;;;0.30;0.20;;;;;;;10.39;100.00;99338.81;5069813;28;20457;-48
2024/03/04 04:37:19;;;;;;;0.30;0.20;;;;;;;10.46;100.00;99344.75;5043824;28;20454;-47
2024/03/04 04:39:46;;;;;;;1.17;1.17;;;;;;;10.47;99.78;99347.34;5070265;28;20932;-47
2024/03/04 04:42:12;;;;;;;0.30;0.20;;;;;;;10.48;99.38;99350.84;5070454;28;20607;-47
2024/03/04 04:44:39;;;;;;;0.30;0.20;;;;;;;10.45;99.37;99343.88;5070607;28;20452;-47
2024/03/04 04:47:05;;;;;;;0.30;0.20;;;;;;;10.44;99.38;99346.63;5074428;28;20446;-47
2024/03/04 04:49:31;;;;;;;0.30;0.20;;;;;;;10.44;99.08;99344.81;5074175;28;20990;-48
2024/03/04 04:51:58;;;;;;;0.40;0.20;;;;;;;10.36;99.36;99347.78;5066513;28;20444;-47
2024/03/04 04:54:25;;;;;;;0.30;0.20;;;;;;;10.35;99.45;99351.38;5068270;28;20927;-47
2024/03/04 04:56:51;;;;;;;0.30;0.20;;;;;;;10.54;99.03;99358.53;5075241;28;20528;-47
2024/03/04 04:59:18;;;;;;;0.30;0.20;;;;;;;10.47;98.71;99367.72;5056634;28;20490;-48
2024/03/04 05:01:45;;;;;;;0.30;0.20;;;;;;;10.55;97.67;99366.47;5064505;28;20453;-48
2024/03/04 05:04:12;;;;;;;0.30;0.20;;;;;;;10.53;98.13;99368.31;5071345;28;20823;-47
2024/03/04 05:06:58;;;;;;;0.30;0.20;;;;;;;10.32;98.98;99375.41;5074508;28;20450;-49
2024/03/04 05:09:25;;;;;;;0.30;0.20;;;;;;;10.30;98.35;99381.72;5073920;28;20978;-47
2024/03/04 05:11:52;;;;;;;0.30;0.20;;;;;;;10.27;98.79;99382.69;5073717;28;20470;-47
2024/03/04 05:14:19;;;;;;;0.30;0.20;;;;;;;10.36;98.55;99387.63;5073889;28;20449;-47
2024/03/04 05:16:45;;;;;;;0.40;0.40;;;;;;;10.25;99.03;99383.69;5064122;28;21007;-47
2024/03/04 05:19:12;;;;;;;0.30;0.20;;;;;;;10.22;98.54;99383.84;5074040;28;20994;-48
2024/03/04 05:21:38;;;;;;;0.30;0.20;;;;;;;10.21;99.06;99382.97;5071390;28;20450;-50
2024/03/04 05:24:05;;;;;;;0.40;0.30;;;;;;;10.14;98.88;99394.72;5047499;28;20472;-48
2024/03/04 05:26:32;;;;;;;0.30;0.20;;;;;;;10.21;98.69;99401.56;5062164;28;20530;-48
2024/03/04 05:29:00;;;;;;;0.30;0.20;;;;;;;10.23;97.73;99405.00;5059757;28;20518;-47
2024/03/04 05:31:26;;;;;;;0.30;0.20;;;;;;;10.09;97.92;99412.66;5054759;28;20447;-47
2024/03/04 05:33:53;;;;;;;0.30;0.20;;;;;;;10.06;97.66;99408.34;5073859;28;20873;-47
2024/03/04 05:36:19;;;;;;;0.30;0.20;;;;;;;10.06;97.41;99412.78;5047623;28;20448;-46
2024/03/04 05:38:46;;;;;;;0.30;0.20;;;;;;;10.06;98.02;99404.81;5061439;28;20960;-47
2024/03/04 05:41:12;;;;;;;0.30;0.20;;;;;;;10.22;97.57;99416.56;5073399;28;20541;-47
2024/03/04 05:43:39;;;;;;;0.30;0.20;;;;;;;10.28;96.67;99418.09;5065273;28;20970;-47
2024/03/04 05:46:05;;;;;;;0.30;0.20;;;;;;;10.35;96.71;99415.13;5073290;28;20460;-47
2024/03/04 05:48:32;;;;;;;0.30;0.20;;;;;;;10.17;96.35;99425.63;5073363;28;20465;-47
2024/03/04 05:50:59;;;;;;;0.30;0.20;;;;;;;10.07;97.32;99433.09;5073046;28;20499;-47
2024/03/04 05:53:25;;;;;;;0.30;0.20;;;;;;;10.23;97.09;99430.72;5057292;28;20788;-47
2024/03/04 05:55:52;;;;;;;0.30;0.20;;;;;;;10.46;96.60;99435.09;5073079;28;20511;-47
2024/03/04 05:58:20;;;;;;;0.30;0.20;;;;;;;10.32;96.37;99441.81;5073056;28;20495;-47
2024/03/04 06:00:46;;;;;;;0.30;0.20;;;;;;;10.46;96.48;99449.22;5073365;28;20451;-47
2024/03/04 06:03:13;;;;;;;0.30;0.20;;;;;;;10.30;97.59;99449.00;5072941;28;20495;-47
2024/03/04 06:05:39;;;;;;;0.30;0.20;;;;;;;10.35;97.44;99457.63;5072319;28;20969;-48
2024/03/04 06:08:06;;;;;;;0.70;0.70;;;;;;;10.19;98.37;99466.25;5073117;28;20906;-47
2024/03/04 06:10:32;;;;;;;1.33;1.23;;;;;;;10.37;98.27;99471.72;5072797;28;20446;-48
2024/03/04 06:12:58;;;;;;;0.30;0.20;;;;;;;10.40;97.77;99470.72;5072216;28;20808;-47
2024/03/04 06:15:25;;;;;;;0.30;0.20;;;;;;;10.29;98.24;99476.50;5072980;28;20495;-47
2024/03/04 06:17:51;;;;;;;0.30;0.20;;;;;;;10.43;97.92;99486.56;5073024;28;20576;-47
2024/03/04 06:20:18;;;;;;;0.30;0.20;;;;;;;10.27;98.61;99488.06;5072633;28;20494;-47
2024/03/04 06:22:44;;;;;;;0.30;0.20;;;;;;;10.41;98.47;99483.06;5071085;28;20454;-47
2024/03/04 06:25:11;;;;;;;0.30;0.20;;;;;;;10.21;98.55;99493.63;5072532;28;20511;-48
2024/03/04 06:27:37;;;;;;;0.30;0.20;;;;;;;10.30;98.85;99498.59;5072867;28;20486;-47
2024/03/04 06:30:08;;;;;;;0.30;0.20;;;;;;;10.44;98.96;99500.69;5064916;28;20545;-47
2024/03/04 06:32:35;;;;;;;0.30;0.20;;;;;;;10.21;98.20;99506.91;5072811;28;20943;-47
2024/03/04 06:35:01;;;;;;;0.30;0.20;;;;;;;10.29;98.83;99512.81;5065406;28;20458;-48
2024/03/04 06:37:28;;;;;;;0.30;0.20;;;;;;;10.05;99.03;99520.78;5042732;28;20543;-47
2024/03/04 06:39:54;;;;;;;0.30;0.20;;;;;;;10.15;99.47;99523.94;5069563;28;20489;-47
2024/03/04 06:42:21;;;;;;;0.30;0.20;;;;;;;10.27;98.37;99531.44;5067482;28;20508;-49
2024/03/04 06:44:47;;;;;;;0.30;0.20;;;;;;;10.18;98.21;99539.75;5060626;28;20446;-48
2024/03/04 06:47:14;;;;;;;0.30;0.20;;;;;;;10.04;99.25;99537.63;5072838;28;20548;-47
2024/03/04 06:49:41;;;;;;;0.30;0.20;;;;;;;10.18;98.25;99541.56;5071277;28;20515;-48
2024/03/04 06:52:08;;;;;;;0.30;0.20;;;;;;;10.07;98.24;99544.63;5062069;28;20929;-47
2024/03/04 06:54:34;;;;;;;0.30;0.20;;;;;;;10.07;99.22;99547.25;5055472;28;21006;-47
2024/03/04 06:57:01;;;;;;;0.30;0.20;;;;;;;10.18;98.51;99553.03;5053844;28;20533;-48
2024/03/04 06:59:27;;;;;;;0.30;0.20;;;;;;;10.33;98.14;99556.91;5065546;28;20734;-47
2024/03/04 07:01:54;;;;;;;0.30;0.20;;;;;;;10.17;98.37;99564.59;5064559;28;20529;-49
2024/03/04 07:04:20;;;;;;;2.27;2.03;;;;;;;10.32;97.85;99566.69;5062202;28;20965;-47
2024/03/04 07:06:47;;;;;;;0.30;0.20;;;;;;;10.26;99.12;99569.56;5060970;28;20453;-49
2024/03/04 07:09:14;;;;;;;0.40;0.20;;;;;;;10.51;98.00;99569.47;5062002;28;20587;-48
2024/03/04 07:11:40;;;;;;;0.30;0.20;;;;;;;10.37;97.92;99585.94;5066833;28;20482;-47
2024/03/04 07:14:07;;;;;;;0.30;0.20;;;;;;;10.36;97.71;99584.22;5072116;28;20474;-47
2024/03/04 07:16:33;;;;;;;0.30;0.20;;;;;;;10.24;98.28;99584.69;5064296;28;20454;-47
2024/03/04 07:19:00;;;;;;;0.30;0.20;;;;;;;10.14;99.46;99583.28;5066145;28;20489;-48
2024/03/04 07:21:26;;;;;;;0.30;0.20;;;;;;;10.30;98.71;99581.81;5063952;28;20512;-47
2024/03/04 07:23:53;;;;;;;0.30;0.20;;;;;;;10.26;98.96;99582.84;5059069;28;20518;-47
2024/03/04 07:26:20;;;;;;;0.30;0.20;;;;;;;10.28;98.82;99573.03;5075069;28;20541;-49
2024/03/04 07:28:47;;;;;;;0.30;0.20;;;;;;;10.20;99.01;99580.41;5074777;28;20465;-47
2024/03/04 07:31:13;;;;;;;0.30;0.20;;;;;;;10.44;98.66;99575.09;5075016;28;20462;-47
2024/03/04 07:33:42;;;;;;;0.30;0.20;;;;;;;10.45;97.91;99590.09;5069104;28;20458;-46
2024/03/04 07:36:13;;;;;;;0.30;0.20;;;;;;;10.65;97.39;99588.38;5049813;28;21178;-49
2024/03/04 07:38:43;;;;;;;0.30;0.20;;;;;;;10.70;96.81;99593.53;5062952;28;20574;-46
2024/03/04 07:41:10;;;;;;;0.30;0.20;;;;;;;10.60;96.83;99597.47;5075619;28;20486;-47
2024/03/04 07:43:37;;;;;;;0.30;0.20;;;;;;;10.52;96.64;99597.75;5067915;28;20938;-49
2024/03/04 07:46:04;;;;;;;0.30;0.20;;;;;;;10.47;97.24;99601.53;5075588;28;20457;-46
2024/03/04 07:48:30;;;;;;;0.30;0.20;;;;;;;10.30;97.64;99605.72;5053201;28;20502;-46
2024/03/04 07:50:57;;;;;;;0.30;0.20;;;;;;;10.39;97.84;99602.69;5061921;28;20534;-47
2024/03/04 07:53:24;;;;;;;0.30;0.20;;;;;;;10.50;97.44;99604.06;5059019;28;20555;-47
2024/03/04 07:55:50;;;;;;;0.30;0.20;;;;;;;10.55;97.11;99610.06;5075514;28;20978;-47
2024/03/04 07:58:16;;;;;;;0.30;0.20;;;;;;;10.51;97.60;99614.63;5058400;28;20491;-47
2024/03/04 08:00:43;;;;;;;0.30;0.20;;;;;;;10.62;96.98;99624.84;5054435;28;20847;-46
2024/03/04 08:03:10;;;;;;;0.30;0.20;;;;;;;10.47;97.25;99625.44;5075236;28;20541;-46
2024/03/04 08:05:36;;;;;;;0.30;0.20;;;;;;;10.44;97.28;99618.47;5063811;28;20447;-47
2024/03/04 08:08:03;;;;;;;0.30;0.20;;;;;;;10.66;97.09;99618.47;5075640;28;20465;-47
2024/03/04 08:10:29;;;;;;;0.30;0.20;;;;;;;10.65;96.39;99622.91;5069226;28;20446;-48
2024/03/04 08:12:57;;;;;;;0.30;0.20;;;;;;;10.67;96.36;99625.50;5052915;28;20461;-46
2024/03/04 08:15:24;;;;;;;0.30;0.20;;;;;;;10.55;96.60;99628.66;5067977;28;20487;-47
2024/03/04 08:17:50;;;;;;;0.30;0.20;;;;;;;10.77;96.30;99623.38;5074997;28;20473;-47
2024/03/04 08:20:22;;;;;;;0.30;0.20;;;;;;;10.74;95.63;99632.34;5048591;28;20485;-47
2024/03/04 08:23:00;;;;;;;0.30;0.20;;;;;;;10.67;96.36;99629.03;5073443;28;20449;-46
2024/03/04 08:25:27;;;;;;;0.30;0.20;;;;;;;10.52;96.31;99637.63;5061543;28;20446;-46
2024/03/04 08:27:53;;;;;;;0.30;0.20;;;;;;;10.85;96.76;99632.78;5074874;28;20469;-47
2024/03/04 08:30:20;;;;;;;0.30;0.20;;;;;;;10.83;96.26;99644.41;5048765;28;20450;-47
2024/03/04 08:32:47;;;;;;;0.30;0.20;;;;;;;10.63;96.02;99639.88;5075259;28;20478;-46
2024/03/04 08:35:13;;;;;;;0.30;0.20;;;;;;;10.73;96.19;99651.88;5063951;28;20451;-46
2024/03/04 08:37:40;;;;;;;0.30;0.20;;;;;;;10.75;95.94;99654.47;5040879;28;20494;-47
2024/03/04 08:40:07;;;;;;;0.30;0.20;;;;;;;10.95;95.29;99650.06;5071697;28;20485;-47
2024/03/04 08:42:37;;;;;;;0.33;0.23;;;;;;;10.79;95.63;99656.06;5058755;28;20467;-47
2024/03/04 08:45:05;;;;;;;0.30;0.20;;;;;;;10.94;95.14;99648.34;5061222;28;20458;-47
2024/03/04 08:47:32;;;;;;;0.30;0.20;;;;;;;10.76;95.69;99657.06;5068367;28;20462;-47
2024/03/04 08:50:00;;;;;;;0.30;0.20;;;;;;;10.82;95.75;99654.16;5066487;28;20472;-49
2024/03/04 08:52:27;;;;;;;0.30;0.20;;;;;;;10.83;95.18;99652.38;5062079;28;20447;-48
2024/03/04 08:54:54;;;;;;;0.30;0.20;;;;;;;10.87;96.11;99662.81;5057771;28;20452;-48
2024/03/04 08:57:20;;;;;;;0.30;0.20;;;;;;;10.97;95.00;99660.66;5062124;28;20454;-47
2024/03/04 08:59:47;;;;;;;0.30;0.20;;;;;;;10.85;95.32;99666.47;5074256;28;20580;-47
2024/03/04 09:02:14;;;;;;;0.30;0.20;;;;;;;10.79;94.54;99662.25;5074289;28;20446;-47
2024/03/04 09:04:40;;;;;;;0.30;0.20;;;;;;;10.90;94.55;99664.50;5074416;28;20446;-47
2024/03/04 09:07:09;;;;;;;0.30;0.20;;;;;;;10.93;94.26;99667.00;5074145;28;20463;-47
2024/03/04 09:09:35;;;;;;;0.30;0.20;;;;;;;10.96;94.05;99665.13;5074045;28;20469;-47
2024/03/04 09:12:03;;;;;;;0.40;0.20;;;;;;;10.89;93.84;99663.63;5073993;28;20500;-49
2024/03/04 09:14:30;;;;;;;5.20;4.80;;;;;;;10.77;94.33;99676.53;5074214;28;20888;-47
2024/03/04 09:16:57;;;;;;;0.30;0.20;;;;;;;10.71;94.91;99671.47;5073763;28;20959;-47
2024/03/04 09:19:23;;;;;;;0.30;0.20;;;;;;;10.66;95.07;99676.94;5073830;28;20576;-46
2024/03/04 09:21:50;;;;;;;0.30;0.20;;;;;;;10.91;94.67;99677.72;5072785;28;20999;-47
2024/03/04 09:24:16;;;;;;;0.30;0.20;;;;;;;10.81;94.44;99680.78;5073774;28;20500;-47
2024/03/04 09:26:46;;;;;;;0.30;0.20;;;;;;;10.74;94.62;99689.94;5073966;28;20456;-47
2024/03/04 09:29:13;;;;;;;0.30;0.20;;;;;;;10.80;94.99;99689.69;5073643;28;21026;-48
2024/03/04 09:31:39;;;;;;;0.30;0.20;;;;;;;10.87;94.22;99693.88;5072339;28;20454;-48
2024/03/04 09:34:06;;;;;;;0.30;0.20;;;;;;;10.94;94.64;99688.22;5073927;28;20458;-47
2024/03/04 09:36:33;;;;;;;0.30;0.20;;;;;;;10.66;95.04;99692.88;5043916;28;20512;-47
2024/03/04 09:39:00;;;;;;;0.30;0.20;;;;;;;10.91;95.43;99700.78;5063156;28;20484;-47
2024/03/04 09:41:30;;;;;;;0.30;0.20;;;;;;;11.02;93.69;99700.38;5073479;28;20939;-47
2024/03/04 09:43:57;;;;;;;0.30;0.20;;;;;;;10.91;93.95;99696.34;5065050;28;21051;-47
2024/03/04 09:46:24;;;;;;;2.10;2.00;;;;;;;10.94;94.86;99698.88;5073242;28;20456;-47
2024/03/04 09:48:52;;;;;;;0.30;0.20;;;;;;;10.86;94.63;99700.13;5073348;28;20527;-47
2024/03/04 09:51:21;;;;;;;0.77;0.77;;;;;;;10.99;94.10;99690.72;5066685;28;20451;-47
2024/03/04 09:53:50;;;;;;;0.30;0.20;;;;;;;10.84;94.88;99696.66;5052542;28;20451;-47
2024/03/04 09:56:17;;;;;;;0.30;0.20;;;;;;;10.96;94.45;99699.69;5072483;28;20477;-49
2024/03/04 09:58:44;;;;;;;0.30;0.20;;;;;;;11.01;93.67;99701.28;5073157;28;20478;-50
2024/03/04 10:01:12;;;;;;;0.30;0.20;;;;;;;10.93;94.42;99705.09;5072877;28;21059;-50
2024/03/04 10:03:38;;;;;;;0.30;0.20;;;;;;;10.94;94.48;99698.00;5073151;28;20449;-49
2024/03/04 10:06:06;;;;;;;0.30;0.20;;;;;;;11.07;94.78;99701.03;5072830;28;20515;-50
2024/03/04 10:08:32;;;;;;;0.30;0.20;;;;;;;10.93;94.04;99698.94;5072865;28;20843;-50
2024/03/04 10:10:59;;;;;;;0.30;0.20;;;;;;;11.14;94.29;99706.06;5072952;28;20491;-49
2024/03/04 10:13:27;;;;;;;0.30;0.20;;;;;;;10.98;95.02;99703.16;5073055;28;20442;-49
2024/03/04 10:15:53;;;;;;;0.30;0.20;;;;;;;11.10;94.46;99708.88;5072804;28;20449;-50
2024/03/04 10:18:21;;;;;;;0.30;0.20;;;;;;;10.93;94.47;99707.78;5071681;28;20477;-49
2024/03/04 10:20:47;;;;;;;0.30;0.20;;;;;;;10.86;94.59;99708.94;5072970;28;20569;-49
2024/03/04 10:23:17;;;;;;;0.30;0.20;;;;;;;11.02;95.34;99709.22;5070882;28;21001;-49
2024/03/04 10:25:43;;;;;;;0.30;0.20;;;;;;;10.75;95.81;99718.25;5047576;28;20539;-49
2024/03/04 10:28:12;;;;;;;0.30;0.20;;;;;;;11.03;95.61;99707.41;5071263;28;20470;-49
2024/03/04 10:30:39;;;;;;;0.30;0.20;;;;;;;10.96;95.17;99713.00;5072836;28;20447;-49
2024/03/04 10:33:06;;;;;;;0.30;0.20;;;;;;;11.07;95.32;99715.19;5072260;28;20812;-49
2024/03/04 10:35:34;;;;;;;0.30;0.20;;;;;;;11.00;94.80;99720.84;5055667;28;20816;-49
2024/03/04 10:38:02;;;;;;;0.30;0.20;;;;;;;11.10;94.70;99716.88;5048562;28;20471;-49
2024/03/04 10:40:33;;;;;;;0.30;0.20;;;;;;;11.16;93.89;99712.19;5072478;28;20486;-49
2024/03/04 10:43:00;;;;;;;0.30;0.20;;;;;;;11.17;93.94;99711.25;5063813;28;20454;-49
2024/03/04 10:45:31;;;;;;;0.30;0.20;;;;;;;11.21;94.67;99710.19;5072235;28;20489;-50
2024/03/04 10:48:01;;;;;;;0.30;0.20;;;;;;;11.35;93.16;99706.09;5072139;28;20557;-49
2024/03/04 10:50:28;;;;;;;0.67;0.67;;;;;;;11.40;92.99;99699.69;5072572;28;20446;-50
2024/03/04 10:52:55;;;;;;;0.30;0.20;;;;;;;11.42;92.92;99711.13;5055704;28;20481;-50
2024/03/04 10:55:27;;;;;;;0.30;0.20;;;;;;;11.46;92.22;99709.19;5072425;28;20442;-49
2024/03/04 10:58:00;;;;;;;0.30;0.20;;;;;;;11.40;92.19;99717.44;5071858;28;20465;-49
2024/03/04 11:00:30;;;;;;;0.30;0.20;;;;;;;11.47;91.81;99714.44;5071758;28;20836;-49
2024/03/04 11:03:12;;;;;;;0.30;0.20;;;;;;;11.45;91.52;99715.44;5072230;28;20477;-49
2024/03/04 11:05:43;;;;;;;0.30;0.20;;;;;;;11.43;91.56;99704.88;5072607;28;20478;-50
2024/03/04 11:08:16;;;;;;;0.30;0.20;;;;;;;11.57;91.65;99709.63;5072201;28;21004;-49
2024/03/04 11:11:03;;;;;;;0.30;0.20;;;;;;;11.60;91.31;99709.47;5072009;28;21034;-49
2024/03/04 11:14:06;;;;;;;0.30;0.20;;;;;;;11.63;90.74;99708.47;5072200;28;20919;-50
2024/03/04 11:16:42;;;;;;;0.30;0.20;;;;;;;11.47;90.63;99703.81;5072010;28;20438;-50
2024/03/04 11:19:32;;;;;;;0.30;0.20;;;;;;;11.66;90.40;99711.91;5071923;28;20490;-49
2024/03/04 11:21:59;;;;;;;0.30;0.20;;;;;;;11.49;91.00;99709.91;5068140;28;20531;-49
2024/03/04 11:24:27;;;;;;;0.30;0.20;;;;;;;11.76;90.55;99712.34;5072051;28;20456;-49
2024/03/04 11:26:55;;;;;;;0.30;0.20;;;;;;;11.95;89.34;99715.16;5071704;28;20537;-50
2024/03/04 11:29:24;;;;;;;0.30;0.20;;;;;;;11.84;89.59;99705.81;5071745;28;20469;-49
2024/03/04 11:31:57;;;;;;;0.30;0.20;;;;;;;11.88;89.48;99703.88;5072012;28;20536;-50
2024/03/04 11:34:24;;;;;;;0.30;0.20;;;;;;;11.81;88.99;99702.44;5071918;28;20446;-49